sensor_id;sensor_type;location;lat;lon;timestamp;P1;durP1;ratioP1;P2;durP2;ratioP2
39848;SDS011;25518;47.878;15.914;2023-11-18T00:00:39;0.93;;;0.57;;
39848;SDS011;25518;47.878;15.914;2023-11-18T00:03:31;1.60;;;0.60;;
39848;SDS011;25518;47.878;15.914;2023-11-18T00:06:23;2.72;;;0.70;;
39848;SDS011;25518;47.878;15.914;2023-11-18T00:09:14;1.10;;;0.65;;
39848;SDS011;25518;47.878;15.914;2023-11-18T00:12:05;0.65;;;0.40;;
39848;SDS011;25518;47.878;15.914;2023-11-18T00:14:58;1.30;;;0.55;;
39848;SDS011;25518;47.878;15.914;2023-11-18T00:17:50;1.00;;;0.60;;
39848;SDS011;25518;47.878;15.914;2023-11-18T00:20:41;1.50;;;0.50;;
39848;SDS011;25518;47.878;15.914;2023-11-18T00:23:34;0.83;;;0.50;;
39848;SDS011;25518;47.878;15.914;2023-11-18T00:26:25;0.80;;;0.40;;
39848;SDS011;25518;47.878;15.914;2023-11-18T00:29:16;1.00;;;0.52;;
39848;SDS011;25518;47.878;15.914;2023-11-18T00:32:08;1.25;;;0.50;;
39848;SDS011;25518;47.878;15.914;2023-11-18T00:34:59;0.80;;;0.43;;
39848;SDS011;25518;47.878;15.914;2023-11-18T00:37:51;1.15;;;0.40;;
39848;SDS011;25518;47.878;15.914;2023-11-18T00:40:43;0.98;;;0.50;;
39848;SDS011;25518;47.878;15.914;2023-11-18T00:43:34;0.98;;;0.47;;
39848;SDS011;25518;47.878;15.914;2023-11-18T00:46:26;0.55;;;0.32;;
39848;SDS011;25518;47.878;15.914;2023-11-18T00:49:18;0.68;;;0.38;;
39848;SDS011;25518;47.878;15.914;2023-11-18T00:52:09;0.32;;;0.30;;
39848;SDS011;25518;47.878;15.914;2023-11-18T00:55:00;0.77;;;0.55;;
39848;SDS011;25518;47.878;15.914;2023-11-18T00:57:51;1.33;;;0.60;;
39848;SDS011;25518;47.878;15.914;2023-11-18T01:00:43;2.28;;;0.55;;
39848;SDS011;25518;47.878;15.914;2023-11-18T01:03:35;0.60;;;0.40;;
39848;SDS011;25518;47.878;15.914;2023-11-18T01:06:26;0.33;;;0.23;;
39848;SDS011;25518;47.878;15.914;2023-11-18T01:09:17;0.85;;;0.57;;
39848;SDS011;25518;47.878;15.914;2023-11-18T01:12:09;0.50;;;0.40;;
39848;SDS011;25518;47.878;15.914;2023-11-18T01:15:00;0.20;;;0.20;;
39848;SDS011;25518;47.878;15.914;2023-11-18T01:17:53;0.73;;;0.50;;
39848;SDS011;25518;47.878;15.914;2023-11-18T01:20:45;0.85;;;0.45;;
39848;SDS011;25518;47.878;15.914;2023-11-18T01:23:37;0.95;;;0.60;;
39848;SDS011;25518;47.878;15.914;2023-11-18T01:26:33;1.55;;;0.50;;
39848;SDS011;25518;47.878;15.914;2023-11-18T01:29:25;0.40;;;0.25;;
39848;SDS011;25518;47.878;15.914;2023-11-18T01:32:17;0.80;;;0.50;;
39848;SDS011;25518;47.878;15.914;2023-11-18T01:35:09;1.38;;;0.57;;
39848;SDS011;25518;47.878;15.914;2023-11-18T01:38:02;1.20;;;0.60;;
39848;SDS011;25518;47.878;15.914;2023-11-18T01:40:55;0.68;;;0.30;;
39848;SDS011;25518;47.878;15.914;2023-11-18T01:43:47;0.90;;;0.60;;
39848;SDS011;25518;47.878;15.914;2023-11-18T01:46:38;0.57;;;0.40;;
39848;SDS011;25518;47.878;15.914;2023-11-18T01:49:31;1.35;;;0.70;;
39848;SDS011;25518;47.878;15.914;2023-11-18T01:52:27;0.43;;;0.30;;
39848;SDS011;25518;47.878;15.914;2023-11-18T01:55:20;0.63;;;0.40;;
39848;SDS011;25518;47.878;15.914;2023-11-18T01:58:12;0.38;;;0.30;;
39848;SDS011;25518;47.878;15.914;2023-11-18T02:01:06;0.70;;;0.40;;
39848;SDS011;25518;47.878;15.914;2023-11-18T02:03:59;0.40;;;0.30;;
39848;SDS011;25518;47.878;15.914;2023-11-18T02:06:50;0.43;;;0.20;;
39848;SDS011;25518;47.878;15.914;2023-11-18T02:09:44;0.63;;;0.40;;
39848;SDS011;25518;47.878;15.914;2023-11-18T02:15:30;0.70;;;0.50;;
39848;SDS011;25518;47.878;15.914;2023-11-18T02:18:25;0.50;;;0.40;;
39848;SDS011;25518;47.878;15.914;2023-11-18T02:21:19;0.30;;;0.30;;
39848;SDS011;25518;47.878;15.914;2023-11-18T02:24:24;3.08;;;0.60;;
39848;SDS011;25518;47.878;15.914;2023-11-18T02:27:21;1.05;;;0.70;;
39848;SDS011;25518;47.878;15.914;2023-11-18T02:30:15;2.90;;;0.60;;
39848;SDS011;25518;47.878;15.914;2023-11-18T02:33:11;0.70;;;0.57;;
39848;SDS011;25518;47.878;15.914;2023-11-18T02:36:13;0.67;;;0.50;;
39848;SDS011;25518;47.878;15.914;2023-11-18T02:39:14;0.82;;;0.50;;
39848;SDS011;25518;47.878;15.914;2023-11-18T02:42:14;0.80;;;0.50;;
39848;SDS011;25518;47.878;15.914;2023-11-18T02:45:07;2.50;;;0.55;;
39848;SDS011;25518;47.878;15.914;2023-11-18T02:48:01;0.85;;;0.60;;
39848;SDS011;25518;47.878;15.914;2023-11-18T02:50:53;0.77;;;0.45;;
39848;SDS011;25518;47.878;15.914;2023-11-18T02:53:45;1.35;;;0.55;;
39848;SDS011;25518;47.878;15.914;2023-11-18T02:56:37;0.57;;;0.35;;
39848;SDS011;25518;47.878;15.914;2023-11-18T02:59:29;1.30;;;0.45;;
39848;SDS011;25518;47.878;15.914;2023-11-18T03:02:21;0.40;;;0.30;;
39848;SDS011;25518;47.878;15.914;2023-11-18T03:05:13;0.68;;;0.40;;
39848;SDS011;25518;47.878;15.914;2023-11-18T03:08:05;0.43;;;0.32;;
39848;SDS011;25518;47.878;15.914;2023-11-18T03:10:56;0.52;;;0.40;;
39848;SDS011;25518;47.878;15.914;2023-11-18T03:13:48;0.65;;;0.40;;
39848;SDS011;25518;47.878;15.914;2023-11-18T03:16:40;2.22;;;0.60;;
39848;SDS011;25518;47.878;15.914;2023-11-18T03:19:32;0.93;;;0.40;;
39848;SDS011;25518;47.878;15.914;2023-11-18T03:22:25;0.73;;;0.40;;
39848;SDS011;25518;47.878;15.914;2023-11-18T03:25:17;0.60;;;0.40;;
39848;SDS011;25518;47.878;15.914;2023-11-18T03:28:12;2.00;;;0.45;;
39848;SDS011;25518;47.878;15.914;2023-11-18T03:31:05;0.40;;;0.30;;
39848;SDS011;25518;47.878;15.914;2023-11-18T03:33:56;0.88;;;0.57;;
39848;SDS011;25518;47.878;15.914;2023-11-18T03:36:48;1.00;;;0.60;;
39848;SDS011;25518;47.878;15.914;2023-11-18T03:39:39;0.50;;;0.40;;
39848;SDS011;25518;47.878;15.914;2023-11-18T03:42:30;0.93;;;0.57;;
39848;SDS011;25518;47.878;15.914;2023-11-18T03:45:22;2.85;;;0.82;;
39848;SDS011;25518;47.878;15.914;2023-11-18T03:48:13;0.80;;;0.70;;
39848;SDS011;25518;47.878;15.914;2023-11-18T03:51:04;1.05;;;0.68;;
39848;SDS011;25518;47.878;15.914;2023-11-18T03:53:56;0.90;;;0.40;;
39848;SDS011;25518;47.878;15.914;2023-11-18T03:56:47;0.70;;;0.45;;
39848;SDS011;25518;47.878;15.914;2023-11-18T03:59:38;1.13;;;0.43;;
39848;SDS011;25518;47.878;15.914;2023-11-18T04:02:31;1.50;;;0.40;;
39848;SDS011;25518;47.878;15.914;2023-11-18T04:05:25;0.80;;;0.40;;
39848;SDS011;25518;47.878;15.914;2023-11-18T04:08:16;0.70;;;0.40;;
39848;SDS011;25518;47.878;15.914;2023-11-18T04:11:08;0.50;;;0.40;;
39848;SDS011;25518;47.878;15.914;2023-11-18T04:13:59;0.68;;;0.43;;
39848;SDS011;25518;47.878;15.914;2023-11-18T04:16:51;1.17;;;0.57;;
39848;SDS011;25518;47.878;15.914;2023-11-18T04:19:42;0.45;;;0.40;;
39848;SDS011;25518;47.878;15.914;2023-11-18T04:22:33;0.70;;;0.40;;
39848;SDS011;25518;47.878;15.914;2023-11-18T04:25:25;0.57;;;0.47;;
39848;SDS011;25518;47.878;15.914;2023-11-18T04:28:16;0.70;;;0.40;;
39848;SDS011;25518;47.878;15.914;2023-11-18T04:31:07;0.40;;;0.35;;
39848;SDS011;25518;47.878;15.914;2023-11-18T04:33:59;0.47;;;0.40;;
39848;SDS011;25518;47.878;15.914;2023-11-18T04:36:50;0.75;;;0.30;;
39848;SDS011;25518;47.878;15.914;2023-11-18T04:39:42;0.90;;;0.40;;
39848;SDS011;25518;47.878;15.914;2023-11-18T04:42:33;0.20;;;0.20;;
39848;SDS011;25518;47.878;15.914;2023-11-18T04:45:24;0.60;;;0.30;;
39848;SDS011;25518;47.878;15.914;2023-11-18T04:48:15;1.10;;;0.40;;
39848;SDS011;25518;47.878;15.914;2023-11-18T04:51:07;0.70;;;0.40;;
39848;SDS011;25518;47.878;15.914;2023-11-18T04:53:58;0.73;;;0.55;;
39848;SDS011;25518;47.878;15.914;2023-11-18T04:56:49;0.30;;;0.22;;
39848;SDS011;25518;47.878;15.914;2023-11-18T04:59:42;0.95;;;0.47;;
39848;SDS011;25518;47.878;15.914;2023-11-18T05:02:34;1.17;;;0.52;;
39848;SDS011;25518;47.878;15.914;2023-11-18T05:05:25;0.70;;;0.40;;
39848;SDS011;25518;47.878;15.914;2023-11-18T05:08:18;0.52;;;0.38;;
39848;SDS011;25518;47.878;15.914;2023-11-18T05:11:10;0.20;;;0.20;;
39848;SDS011;25518;47.878;15.914;2023-11-18T05:14:03;0.63;;;0.30;;
39848;SDS011;25518;47.878;15.914;2023-11-18T05:16:55;0.32;;;0.30;;
39848;SDS011;25518;47.878;15.914;2023-11-18T05:19:47;0.63;;;0.30;;
39848;SDS011;25518;47.878;15.914;2023-11-18T05:22:38;0.50;;;0.32;;
39848;SDS011;25518;47.878;15.914;2023-11-18T05:25:29;0.55;;;0.40;;
39848;SDS011;25518;47.878;15.914;2023-11-18T05:28:24;0.53;;;0.40;;
39848;SDS011;25518;47.878;15.914;2023-11-18T05:31:16;1.55;;;0.43;;
39848;SDS011;25518;47.878;15.914;2023-11-18T05:34:07;0.75;;;0.50;;
39848;SDS011;25518;47.878;15.914;2023-11-18T05:36:58;1.53;;;0.53;;
39848;SDS011;25518;47.878;15.914;2023-11-18T05:39:50;1.20;;;0.52;;
39848;SDS011;25518;47.878;15.914;2023-11-18T05:42:49;0.73;;;0.40;;
39848;SDS011;25518;47.878;15.914;2023-11-18T05:45:42;0.50;;;0.40;;
39848;SDS011;25518;47.878;15.914;2023-11-18T05:48:53;0.67;;;0.40;;
39848;SDS011;25518;47.878;15.914;2023-11-18T05:51:45;0.50;;;0.38;;
39848;SDS011;25518;47.878;15.914;2023-11-18T05:54:36;0.55;;;0.43;;
39848;SDS011;25518;47.878;15.914;2023-11-18T05:57:27;0.52;;;0.32;;
39848;SDS011;25518;47.878;15.914;2023-11-18T06:00:18;0.93;;;0.50;;
39848;SDS011;25518;47.878;15.914;2023-11-18T06:03:11;0.98;;;0.50;;
39848;SDS011;25518;47.878;15.914;2023-11-18T06:06:03;0.50;;;0.30;;
39848;SDS011;25518;47.878;15.914;2023-11-18T06:08:57;0.43;;;0.40;;
39848;SDS011;25518;47.878;15.914;2023-11-18T06:11:55;0.30;;;0.30;;
39848;SDS011;25518;47.878;15.914;2023-11-18T06:14:46;0.68;;;0.38;;
39848;SDS011;25518;47.878;15.914;2023-11-18T06:17:39;1.00;;;0.55;;
39848;SDS011;25518;47.878;15.914;2023-11-18T06:20:33;0.88;;;0.40;;
39848;SDS011;25518;47.878;15.914;2023-11-18T06:23:26;2.38;;;0.45;;
39848;SDS011;25518;47.878;15.914;2023-11-18T06:26:17;0.80;;;0.30;;
39848;SDS011;25518;47.878;15.914;2023-11-18T06:29:08;0.77;;;0.45;;
39848;SDS011;25518;47.878;15.914;2023-11-18T06:32:00;0.98;;;0.70;;
39848;SDS011;25518;47.878;15.914;2023-11-18T06:34:52;1.27;;;0.60;;
39848;SDS011;25518;47.878;15.914;2023-11-18T06:37:43;0.90;;;0.50;;
39848;SDS011;25518;47.878;15.914;2023-11-18T06:40:35;0.68;;;0.50;;
39848;SDS011;25518;47.878;15.914;2023-11-18T06:43:27;1.30;;;0.50;;
39848;SDS011;25518;47.878;15.914;2023-11-18T06:46:28;1.10;;;0.60;;
39848;SDS011;25518;47.878;15.914;2023-11-18T06:49:23;0.82;;;0.50;;
39848;SDS011;25518;47.878;15.914;2023-11-18T06:52:16;1.50;;;0.70;;
39848;SDS011;25518;47.878;15.914;2023-11-18T06:55:07;1.85;;;1.00;;
39848;SDS011;25518;47.878;15.914;2023-11-18T06:57:58;0.87;;;0.50;;
39848;SDS011;25518;47.878;15.914;2023-11-18T07:00:50;1.60;;;0.75;;
39848;SDS011;25518;47.878;15.914;2023-11-18T07:03:42;1.17;;;0.70;;
39848;SDS011;25518;47.878;15.914;2023-11-18T07:06:34;1.05;;;0.57;;
39848;SDS011;25518;47.878;15.914;2023-11-18T07:09:28;1.80;;;0.65;;
39848;SDS011;25518;47.878;15.914;2023-11-18T07:12:19;1.30;;;0.57;;
39848;SDS011;25518;47.878;15.914;2023-11-18T07:15:11;0.85;;;0.40;;
39848;SDS011;25518;47.878;15.914;2023-11-18T07:18:02;1.98;;;0.63;;
39848;SDS011;25518;47.878;15.914;2023-11-18T07:20:54;0.80;;;0.60;;
39848;SDS011;25518;47.878;15.914;2023-11-18T07:23:45;1.33;;;0.75;;
39848;SDS011;25518;47.878;15.914;2023-11-18T07:26:37;0.90;;;0.63;;
39848;SDS011;25518;47.878;15.914;2023-11-18T07:29:28;1.33;;;0.60;;
39848;SDS011;25518;47.878;15.914;2023-11-18T07:32:19;1.83;;;0.90;;
39848;SDS011;25518;47.878;15.914;2023-11-18T07:35:11;2.90;;;0.60;;
39848;SDS011;25518;47.878;15.914;2023-11-18T07:38:02;1.23;;;0.60;;
39848;SDS011;25518;47.878;15.914;2023-11-18T07:40:54;0.95;;;0.60;;
39848;SDS011;25518;47.878;15.914;2023-11-18T07:43:47;1.15;;;0.63;;
39848;SDS011;25518;47.878;15.914;2023-11-18T07:46:38;1.70;;;0.85;;
39848;SDS011;25518;47.878;15.914;2023-11-18T07:49:34;2.33;;;0.90;;
39848;SDS011;25518;47.878;15.914;2023-11-18T07:52:26;1.38;;;0.88;;
39848;SDS011;25518;47.878;15.914;2023-11-18T07:55:19;1.98;;;0.77;;
39848;SDS011;25518;47.878;15.914;2023-11-18T07:58:13;1.13;;;0.57;;
39848;SDS011;25518;47.878;15.914;2023-11-18T08:01:05;1.10;;;0.77;;
39848;SDS011;25518;47.878;15.914;2023-11-18T08:03:57;1.40;;;0.90;;
39848;SDS011;25518;47.878;15.914;2023-11-18T08:06:49;1.25;;;0.65;;
39848;SDS011;25518;47.878;15.914;2023-11-18T08:09:40;2.42;;;0.68;;
39848;SDS011;25518;47.878;15.914;2023-11-18T08:12:33;1.52;;;0.80;;
39848;SDS011;25518;47.878;15.914;2023-11-18T08:15:25;1.17;;;0.50;;
39848;SDS011;25518;47.878;15.914;2023-11-18T08:18:20;1.20;;;0.83;;
39848;SDS011;25518;47.878;15.914;2023-11-18T08:21:12;0.90;;;0.60;;
39848;SDS011;25518;47.878;15.914;2023-11-18T08:24:05;1.60;;;1.00;;
39848;SDS011;25518;47.878;15.914;2023-11-18T08:26:58;1.48;;;0.88;;
39848;SDS011;25518;47.878;15.914;2023-11-18T08:29:50;3.75;;;1.42;;
39848;SDS011;25518;47.878;15.914;2023-11-18T08:32:42;8.10;;;2.93;;
39848;SDS011;25518;47.878;15.914;2023-11-18T08:35:34;7.30;;;2.28;;
39848;SDS011;25518;47.878;15.914;2023-11-18T08:38:27;5.72;;;2.03;;
39848;SDS011;25518;47.878;15.914;2023-11-18T08:41:18;3.08;;;1.40;;
39848;SDS011;25518;47.878;15.914;2023-11-18T08:44:10;2.35;;;1.10;;
39848;SDS011;25518;47.878;15.914;2023-11-18T08:47:03;1.63;;;0.90;;
39848;SDS011;25518;47.878;15.914;2023-11-18T08:49:58;2.78;;;1.40;;
39848;SDS011;25518;47.878;15.914;2023-11-18T08:53:02;1.40;;;0.73;;
39848;SDS011;25518;47.878;15.914;2023-11-18T08:55:59;2.00;;;0.80;;
39848;SDS011;25518;47.878;15.914;2023-11-18T08:58:56;1.98;;;0.80;;
39848;SDS011;25518;47.878;15.914;2023-11-18T09:01:51;1.42;;;0.77;;
39848;SDS011;25518;47.878;15.914;2023-11-18T09:04:46;1.33;;;0.77;;
39848;SDS011;25518;47.878;15.914;2023-11-18T09:07:37;1.45;;;0.88;;
39848;SDS011;25518;47.878;15.914;2023-11-18T09:10:29;1.27;;;0.65;;
39848;SDS011;25518;47.878;15.914;2023-11-18T09:13:21;1.10;;;0.73;;
39848;SDS011;25518;47.878;15.914;2023-11-18T09:16:13;1.52;;;1.00;;
39848;SDS011;25518;47.878;15.914;2023-11-18T09:19:06;1.08;;;0.70;;
39848;SDS011;25518;47.878;15.914;2023-11-18T09:21:57;1.48;;;0.80;;
39848;SDS011;25518;47.878;15.914;2023-11-18T09:24:49;1.43;;;0.80;;
39848;SDS011;25518;47.878;15.914;2023-11-18T09:27:41;2.03;;;0.90;;
39848;SDS011;25518;47.878;15.914;2023-11-18T09:30:33;2.30;;;1.17;;
39848;SDS011;25518;47.878;15.914;2023-11-18T09:33:25;1.50;;;0.80;;
39848;SDS011;25518;47.878;15.914;2023-11-18T09:36:23;1.60;;;0.70;;
39848;SDS011;25518;47.878;15.914;2023-11-18T09:39:14;1.30;;;0.80;;
39848;SDS011;25518;47.878;15.914;2023-11-18T09:42:19;1.58;;;0.77;;
39848;SDS011;25518;47.878;15.914;2023-11-18T09:45:14;1.00;;;0.70;;
39848;SDS011;25518;47.878;15.914;2023-11-18T09:48:10;1.80;;;1.00;;
39848;SDS011;25518;47.878;15.914;2023-11-18T09:51:08;2.80;;;1.23;;
39848;SDS011;25518;47.878;15.914;2023-11-18T09:54:01;2.17;;;0.93;;
39848;SDS011;25518;47.878;15.914;2023-11-18T09:57:04;1.48;;;0.70;;
39848;SDS011;25518;47.878;15.914;2023-11-18T10:00:04;1.60;;;1.00;;
39848;SDS011;25518;47.878;15.914;2023-11-18T10:03:17;3.30;;;0.90;;
39848;SDS011;25518;47.878;15.914;2023-11-18T10:06:08;1.50;;;0.80;;
39848;SDS011;25518;47.878;15.914;2023-11-18T10:09:01;1.00;;;0.63;;
39848;SDS011;25518;47.878;15.914;2023-11-18T10:12:07;1.40;;;0.82;;
39848;SDS011;25518;47.878;15.914;2023-11-18T10:14:59;1.30;;;0.70;;
39848;SDS011;25518;47.878;15.914;2023-11-18T10:17:54;1.00;;;0.68;;
39848;SDS011;25518;47.878;15.914;2023-11-18T10:21:05;1.67;;;0.88;;
39848;SDS011;25518;47.878;15.914;2023-11-18T10:24:02;1.10;;;0.77;;
39848;SDS011;25518;47.878;15.914;2023-11-18T10:26:56;1.58;;;0.85;;
39848;SDS011;25518;47.878;15.914;2023-11-18T10:29:48;1.88;;;1.10;;
39848;SDS011;25518;47.878;15.914;2023-11-18T10:32:42;2.17;;;0.90;;
39848;SDS011;25518;47.878;15.914;2023-11-18T10:35:36;1.70;;;1.00;;
39848;SDS011;25518;47.878;15.914;2023-11-18T10:38:27;1.80;;;0.87;;
39848;SDS011;25518;47.878;15.914;2023-11-18T10:41:21;4.28;;;1.38;;
39848;SDS011;25518;47.878;15.914;2023-11-18T10:44:13;1.40;;;0.80;;
39848;SDS011;25518;47.878;15.914;2023-11-18T10:47:05;1.95;;;0.80;;
39848;SDS011;25518;47.878;15.914;2023-11-18T10:50:02;2.38;;;1.15;;
39848;SDS011;25518;47.878;15.914;2023-11-18T10:52:53;1.02;;;0.77;;
39848;SDS011;25518;47.878;15.914;2023-11-18T10:55:45;1.25;;;0.77;;
39848;SDS011;25518;47.878;15.914;2023-11-18T10:58:36;1.35;;;0.82;;
39848;SDS011;25518;47.878;15.914;2023-11-18T11:01:32;1.85;;;0.88;;
39848;SDS011;25518;47.878;15.914;2023-11-18T11:04:29;1.77;;;0.98;;
39848;SDS011;25518;47.878;15.914;2023-11-18T11:07:35;2.28;;;1.05;;
39848;SDS011;25518;47.878;15.914;2023-11-18T11:10:28;1.90;;;0.98;;
39848;SDS011;25518;47.878;15.914;2023-11-18T11:13:20;2.15;;;1.00;;
39848;SDS011;25518;47.878;15.914;2023-11-18T11:16:12;2.45;;;1.15;;
39848;SDS011;25518;47.878;15.914;2023-11-18T11:19:08;1.60;;;0.80;;
39848;SDS011;25518;47.878;15.914;2023-11-18T11:22:12;2.75;;;1.10;;
39848;SDS011;25518;47.878;15.914;2023-11-18T11:25:43;1.27;;;0.75;;
39848;SDS011;25518;47.878;15.914;2023-11-18T11:28:31;1.50;;;0.82;;
39848;SDS011;25518;47.878;15.914;2023-11-18T11:31:38;1.80;;;1.02;;
39848;SDS011;25518;47.878;15.914;2023-11-18T11:34:30;1.55;;;1.00;;
39848;SDS011;25518;47.878;15.914;2023-11-18T11:37:25;1.50;;;0.93;;
39848;SDS011;25518;47.878;15.914;2023-11-18T11:40:18;2.30;;;1.30;;
39848;SDS011;25518;47.878;15.914;2023-11-18T11:43:12;3.63;;;1.15;;
39848;SDS011;25518;47.878;15.914;2023-11-18T11:46:11;1.52;;;0.90;;
39848;SDS011;25518;47.878;15.914;2023-11-18T11:49:04;1.80;;;0.80;;
39848;SDS011;25518;47.878;15.914;2023-11-18T11:52:19;1.38;;;0.80;;
39848;SDS011;25518;47.878;15.914;2023-11-18T11:55:19;1.30;;;0.80;;
39848;SDS011;25518;47.878;15.914;2023-11-18T11:58:32;2.15;;;1.17;;
39848;SDS011;25518;47.878;15.914;2023-11-18T12:01:32;1.95;;;1.10;;
39848;SDS011;25518;47.878;15.914;2023-11-18T12:04:27;3.05;;;1.20;;
39848;SDS011;25518;47.878;15.914;2023-11-18T12:07:20;1.40;;;0.98;;
39848;SDS011;25518;47.878;15.914;2023-11-18T12:10:14;3.38;;;1.33;;
39848;SDS011;25518;47.878;15.914;2023-11-18T12:13:11;1.85;;;0.88;;
39848;SDS011;25518;47.878;15.914;2023-11-18T12:16:06;1.27;;;0.80;;
39848;SDS011;25518;47.878;15.914;2023-11-18T12:19:31;2.15;;;1.30;;
39848;SDS011;25518;47.878;15.914;2023-11-18T12:23:04;1.50;;;0.90;;
39848;SDS011;25518;47.878;15.914;2023-11-18T12:26:45;2.28;;;1.02;;
39848;SDS011;25518;47.878;15.914;2023-11-18T12:29:31;3.35;;;1.55;;
39848;SDS011;25518;47.878;15.914;2023-11-18T12:42:58;1.45;;;0.75;;
39848;SDS011;25518;47.878;15.914;2023-11-18T12:45:42;1.50;;;0.90;;
39848;SDS011;25518;47.878;15.914;2023-11-18T12:48:56;2.25;;;1.05;;
39848;SDS011;25518;47.878;15.914;2023-11-18T12:51:51;1.20;;;0.80;;
39848;SDS011;25518;47.878;15.914;2023-11-18T12:54:45;2.65;;;1.05;;
39848;SDS011;25518;47.878;15.914;2023-11-18T12:57:45;2.00;;;1.02;;
39848;SDS011;25518;47.878;15.914;2023-11-18T13:00:39;1.92;;;0.90;;
39848;SDS011;25518;47.878;15.914;2023-11-18T13:03:33;1.40;;;1.00;;
39848;SDS011;25518;47.878;15.914;2023-11-18T13:06:25;1.92;;;1.30;;
39848;SDS011;25518;47.878;15.914;2023-11-18T13:09:19;1.95;;;1.00;;
39848;SDS011;25518;47.878;15.914;2023-11-18T13:12:16;1.65;;;1.00;;
39848;SDS011;25518;47.878;15.914;2023-11-18T13:15:10;2.85;;;1.00;;
39848;SDS011;25518;47.878;15.914;2023-11-18T13:18:02;2.05;;;1.30;;
39848;SDS011;25518;47.878;15.914;2023-11-18T13:20:57;2.33;;;1.02;;
39848;SDS011;25518;47.878;15.914;2023-11-18T13:23:48;2.45;;;1.30;;
39848;SDS011;25518;47.878;15.914;2023-11-18T13:26:43;1.37;;;0.97;;
39848;SDS011;25518;47.878;15.914;2023-11-18T13:29:35;2.25;;;1.10;;
39848;SDS011;25518;47.878;15.914;2023-11-18T13:32:29;2.00;;;0.90;;
39848;SDS011;25518;47.878;15.914;2023-11-18T13:35:21;2.37;;;1.10;;
39848;SDS011;25518;47.878;15.914;2023-11-18T13:38:14;2.15;;;1.30;;
39848;SDS011;25518;47.878;15.914;2023-11-18T13:41:05;1.15;;;0.80;;
39848;SDS011;25518;47.878;15.914;2023-11-18T13:43:59;2.53;;;1.60;;
39848;SDS011;25518;47.878;15.914;2023-11-18T13:46:51;2.50;;;1.50;;
39848;SDS011;25518;47.878;15.914;2023-11-18T13:49:43;2.17;;;1.13;;
39848;SDS011;25518;47.878;15.914;2023-11-18T13:52:36;1.85;;;1.00;;
39848;SDS011;25518;47.878;15.914;2023-11-18T13:55:29;2.23;;;1.03;;
39848;SDS011;25518;47.878;15.914;2023-11-18T13:58:22;3.15;;;1.40;;
39848;SDS011;25518;47.878;15.914;2023-11-18T14:01:14;2.27;;;1.20;;
39848;SDS011;25518;47.878;15.914;2023-11-18T14:04:07;3.15;;;1.27;;
39848;SDS011;25518;47.878;15.914;2023-11-18T14:07:00;2.40;;;1.30;;
39848;SDS011;25518;47.878;15.914;2023-11-18T14:09:54;6.15;;;2.40;;
39848;SDS011;25518;47.878;15.914;2023-11-18T14:13:04;4.68;;;1.50;;
39848;SDS011;25518;47.878;15.914;2023-11-18T14:15:58;3.08;;;1.25;;
39848;SDS011;25518;47.878;15.914;2023-11-18T14:18:50;1.73;;;0.90;;
39848;SDS011;25518;47.878;15.914;2023-11-18T14:21:42;1.83;;;1.10;;
39848;SDS011;25518;47.878;15.914;2023-11-18T14:24:33;2.10;;;1.17;;
39848;SDS011;25518;47.878;15.914;2023-11-18T14:27:25;3.00;;;1.20;;
39848;SDS011;25518;47.878;15.914;2023-11-18T14:30:16;4.22;;;1.80;;
39848;SDS011;25518;47.878;15.914;2023-11-18T14:33:10;2.05;;;1.25;;
39848;SDS011;25518;47.878;15.914;2023-11-18T14:36:01;2.75;;;1.20;;
39848;SDS011;25518;47.878;15.914;2023-11-18T14:38:55;3.58;;;1.20;;
39848;SDS011;25518;47.878;15.914;2023-11-18T14:41:49;1.30;;;0.90;;
39848;SDS011;25518;47.878;15.914;2023-11-18T14:44:41;2.38;;;1.10;;
39848;SDS011;25518;47.878;15.914;2023-11-18T14:47:32;3.65;;;1.30;;
39848;SDS011;25518;47.878;15.914;2023-11-18T14:50:24;1.70;;;1.02;;
39848;SDS011;25518;47.878;15.914;2023-11-18T14:53:18;2.22;;;1.20;;
39848;SDS011;25518;47.878;15.914;2023-11-18T14:56:09;1.60;;;0.97;;
39848;SDS011;25518;47.878;15.914;2023-11-18T14:59:01;2.65;;;1.27;;
39848;SDS011;25518;47.878;15.914;2023-11-18T15:01:55;1.40;;;0.83;;
39848;SDS011;25518;47.878;15.914;2023-11-18T15:04:48;1.60;;;0.90;;
39848;SDS011;25518;47.878;15.914;2023-11-18T15:07:41;1.60;;;1.00;;
39848;SDS011;25518;47.878;15.914;2023-11-18T15:10:32;2.15;;;0.90;;
39848;SDS011;25518;47.878;15.914;2023-11-18T15:13:24;1.83;;;0.90;;
39848;SDS011;25518;47.878;15.914;2023-11-18T15:16:16;1.38;;;0.77;;
39848;SDS011;25518;47.878;15.914;2023-11-18T15:19:10;1.60;;;0.90;;
39848;SDS011;25518;47.878;15.914;2023-11-18T15:22:02;1.63;;;0.80;;
39848;SDS011;25518;47.878;15.914;2023-11-18T15:24:54;1.87;;;0.90;;
39848;SDS011;25518;47.878;15.914;2023-11-18T15:27:50;1.70;;;0.88;;
39848;SDS011;25518;47.878;15.914;2023-11-18T15:30:41;2.25;;;0.98;;
39848;SDS011;25518;47.878;15.914;2023-11-18T15:33:34;2.85;;;1.20;;
39848;SDS011;25518;47.878;15.914;2023-11-18T15:36:25;1.23;;;0.75;;
39848;SDS011;25518;47.878;15.914;2023-11-18T15:39:17;1.97;;;0.87;;
39848;SDS011;25518;47.878;15.914;2023-11-18T15:42:09;2.10;;;1.17;;
39848;SDS011;25518;47.878;15.914;2023-11-18T15:45:02;1.00;;;0.70;;
39848;SDS011;25518;47.878;15.914;2023-11-18T15:47:55;1.40;;;0.80;;
39848;SDS011;25518;47.878;15.914;2023-11-18T15:50:49;1.10;;;0.80;;
39848;SDS011;25518;47.878;15.914;2023-11-18T15:53:41;1.00;;;0.67;;
39848;SDS011;25518;47.878;15.914;2023-11-18T15:56:33;1.17;;;0.60;;
39848;SDS011;25518;47.878;15.914;2023-11-18T15:59:24;0.50;;;0.50;;
39848;SDS011;25518;47.878;15.914;2023-11-18T16:02:17;1.65;;;0.73;;
39848;SDS011;25518;47.878;15.914;2023-11-18T16:05:08;1.83;;;0.77;;
39848;SDS011;25518;47.878;15.914;2023-11-18T16:07:59;1.23;;;0.80;;
39848;SDS011;25518;47.878;15.914;2023-11-18T16:10:52;1.55;;;0.75;;
39848;SDS011;25518;47.878;15.914;2023-11-18T16:13:44;1.27;;;0.70;;
39848;SDS011;25518;47.878;15.914;2023-11-18T16:16:35;1.23;;;0.70;;
39848;SDS011;25518;47.878;15.914;2023-11-18T16:19:28;1.05;;;0.60;;
39848;SDS011;25518;47.878;15.914;2023-11-18T16:22:20;1.95;;;0.95;;
39848;SDS011;25518;47.878;15.914;2023-11-18T16:25:11;2.92;;;1.08;;
39848;SDS011;25518;47.878;15.914;2023-11-18T16:28:02;1.75;;;0.77;;
39848;SDS011;25518;47.878;15.914;2023-11-18T16:30:55;2.72;;;1.33;;
39848;SDS011;25518;47.878;15.914;2023-11-18T16:33:47;3.35;;;1.52;;
39848;SDS011;25518;47.878;15.914;2023-11-18T16:36:39;4.00;;;1.52;;
39848;SDS011;25518;47.878;15.914;2023-11-18T16:39:30;1.65;;;0.82;;
39848;SDS011;25518;47.878;15.914;2023-11-18T16:42:22;1.45;;;0.90;;
39848;SDS011;25518;47.878;15.914;2023-11-18T16:45:18;3.75;;;1.75;;
39848;SDS011;25518;47.878;15.914;2023-11-18T16:48:11;1.88;;;0.90;;
39848;SDS011;25518;47.878;15.914;2023-11-18T16:51:02;1.63;;;0.82;;
39848;SDS011;25518;47.878;15.914;2023-11-18T16:53:54;1.90;;;1.00;;
39848;SDS011;25518;47.878;15.914;2023-11-18T16:56:45;1.53;;;0.90;;
39848;SDS011;25518;47.878;15.914;2023-11-18T16:59:37;0.82;;;0.52;;
39848;SDS011;25518;47.878;15.914;2023-11-18T17:02:28;1.52;;;0.73;;
39848;SDS011;25518;47.878;15.914;2023-11-18T17:05:19;1.10;;;0.70;;
39848;SDS011;25518;47.878;15.914;2023-11-18T17:08:13;2.00;;;1.05;;
39848;SDS011;25518;47.878;15.914;2023-11-18T17:11:04;1.00;;;0.65;;
39848;SDS011;25518;47.878;15.914;2023-11-18T17:13:56;1.38;;;0.60;;
39848;SDS011;25518;47.878;15.914;2023-11-18T17:16:47;0.90;;;0.50;;
39848;SDS011;25518;47.878;15.914;2023-11-18T17:19:39;1.65;;;0.82;;
39848;SDS011;25518;47.878;15.914;2023-11-18T17:22:30;1.52;;;0.60;;